sensor_id;sensor_type;location;lat;lon;timestamp;pressure;altitude;pressure_sealevel;temperature;humidity
20889;BME280;10604;51.976;7.594;2023-02-08T00:01:17;103238.53;;;-1.59;85.35
20889;BME280;10604;51.976;7.594;2023-02-08T00:03:43;103231.38;;;-1.63;85.31
20889;BME280;10604;51.976;7.594;2023-02-08T00:06:09;103229.72;;;-1.48;85.31
20889;BME280;10604;51.976;7.594;2023-02-08T00:08:36;103240.50;;;-1.55;84.50
20889;BME280;10604;51.976;7.594;2023-02-08T00:11:02;103233.81;;;-1.66;84.64
20889;BME280;10604;51.976;7.594;2023-02-08T00:13:29;103240.78;;;-1.65;84.75
20889;BME280;10604;51.976;7.594;2023-02-08T00:15:54;103238.19;;;-1.65;84.68
20889;BME280;10604;51.976;7.594;2023-02-08T00:18:21;103237.72;;;-1.73;85.17
20889;BME280;10604;51.976;7.594;2023-02-08T00:20:47;103235.41;;;-1.68;85.08
20889;BME280;10604;51.976;7.594;2023-02-08T00:23:13;103230.97;;;-1.71;84.50
20889;BME280;10604;51.976;7.594;2023-02-08T00:25:39;103237.19;;;-1.67;85.21
20889;BME280;10604;51.976;7.594;2023-02-08T00:28:06;103228.97;;;-1.75;85.29
20889;BME280;10604;51.976;7.594;2023-02-08T00:30:32;103227.91;;;-1.78;85.17
20889;BME280;10604;51.976;7.594;2023-02-08T00:33:00;103219.31;;;-1.77;85.59
20889;BME280;10604;51.976;7.594;2023-02-08T00:35:25;103215.81;;;-1.65;85.78
20889;BME280;10604;51.976;7.594;2023-02-08T00:37:50;103215.94;;;-1.76;85.20
20889;BME280;10604;51.976;7.594;2023-02-08T00:40:16;103207.38;;;-1.75;85.04
20889;BME280;10604;51.976;7.594;2023-02-08T00:42:41;103209.88;;;-1.77;85.06
20889;BME280;10604;51.976;7.594;2023-02-08T00:45:07;103212.41;;;-1.78;85.14
20889;BME280;10604;51.976;7.594;2023-02-08T00:47:33;103210.59;;;-1.79;85.60
20889;BME280;10604;51.976;7.594;2023-02-08T00:49:58;103209.47;;;-1.98;86.60
20889;BME280;10604;51.976;7.594;2023-02-08T00:52:24;103212.31;;;-2.08;86.23
20889;BME280;10604;51.976;7.594;2023-02-08T00:54:49;103213.09;;;-2.09;86.40
20889;BME280;10604;51.976;7.594;2023-02-08T00:57:14;103210.53;;;-2.09;86.64
20889;BME280;10604;51.976;7.594;2023-02-08T00:59:40;103208.38;;;-2.16;86.76
20889;BME280;10604;51.976;7.594;2023-02-08T01:02:05;103206.34;;;-2.07;86.73
20889;BME280;10604;51.976;7.594;2023-02-08T01:04:31;103213.69;;;-2.13;86.52
20889;BME280;10604;51.976;7.594;2023-02-08T01:06:56;103210.16;;;-2.15;86.11
20889;BME280;10604;51.976;7.594;2023-02-08T01:09:22;103206.19;;;-2.23;86.41
20889;BME280;10604;51.976;7.594;2023-02-08T01:11:48;103214.81;;;-2.09;86.58
20889;BME280;10604;51.976;7.594;2023-02-08T01:14:14;103213.91;;;-2.10;86.58
20889;BME280;10604;51.976;7.594;2023-02-08T01:16:39;103207.16;;;-2.08;86.72
20889;BME280;10604;51.976;7.594;2023-02-08T01:19:05;103204.78;;;-2.18;86.81
20889;BME280;10604;51.976;7.594;2023-02-08T01:21:32;103209.06;;;-2.18;86.26
20889;BME280;10604;51.976;7.594;2023-02-08T01:23:59;103198.03;;;-2.16;86.90
20889;BME280;10604;51.976;7.594;2023-02-08T01:26:25;103195.34;;;-2.17;86.73
20889;BME280;10604;51.976;7.594;2023-02-08T01:28:52;103187.31;;;-2.22;86.64
20889;BME280;10604;51.976;7.594;2023-02-08T01:31:20;103187.31;;;-2.22;86.82
20889;BME280;10604;51.976;7.594;2023-02-08T01:33:46;103188.25;;;-2.07;86.69
20889;BME280;10604;51.976;7.594;2023-02-08T01:36:12;103185.69;;;-2.20;86.10
20889;BME280;10604;51.976;7.594;2023-02-08T01:38:39;103180.53;;;-2.20;85.95
20889;BME280;10604;51.976;7.594;2023-02-08T01:41:06;103182.75;;;-2.26;85.95
20889;BME280;10604;51.976;7.594;2023-02-08T01:46:45;103178.16;;;-2.17;85.46
20889;BME280;10604;51.976;7.594;2023-02-08T01:49:18;103181.25;;;-2.22;85.57
20889;BME280;10604;51.976;7.594;2023-02-08T01:51:48;103183.75;;;-2.24;85.79
20889;BME280;10604;51.976;7.594;2023-02-08T01:54:17;103171.97;;;-2.19;85.57
20889;BME280;10604;51.976;7.594;2023-02-08T01:56:44;103180.53;;;-2.20;85.76
20889;BME280;10604;51.976;7.594;2023-02-08T01:59:16;103185.03;;;-2.03;85.39
20889;BME280;10604;51.976;7.594;2023-02-08T02:01:44;103187.72;;;-2.01;85.23
20889;BME280;10604;51.976;7.594;2023-02-08T02:04:10;103182.53;;;-2.16;85.14
20889;BME280;10604;51.976;7.594;2023-02-08T02:06:39;103188.91;;;-2.24;84.85
20889;BME280;10604;51.976;7.594;2023-02-08T02:09:26;103190.13;;;-2.32;84.97
20889;BME280;10604;51.976;7.594;2023-02-08T02:11:53;103176.94;;;-2.37;85.21
20889;BME280;10604;51.976;7.594;2023-02-08T02:14:19;103175.50;;;-2.31;85.56
20889;BME280;10604;51.976;7.594;2023-02-08T02:16:45;103176.41;;;-2.31;85.02
20889;BME280;10604;51.976;7.594;2023-02-08T02:22:02;103186.00;;;-2.43;85.27
20889;BME280;10604;51.976;7.594;2023-02-08T02:27:44;103178.75;;;-2.49;84.99
20889;BME280;10604;51.976;7.594;2023-02-08T02:36:01;103166.91;;;-2.45;85.01
20889;BME280;10604;51.976;7.594;2023-02-08T02:44:04;103167.13;;;-2.55;85.08
20889;BME280;10604;51.976;7.594;2023-02-08T02:46:42;103169.41;;;-2.47;85.24
20889;BME280;10604;51.976;7.594;2023-02-08T02:52:01;103178.28;;;-2.56;85.08
20889;BME280;10604;51.976;7.594;2023-02-08T02:54:38;103179.50;;;-2.64;85.10
20889;BME280;10604;51.976;7.594;2023-02-08T02:57:07;103174.31;;;-2.64;85.68
20889;BME280;10604;51.976;7.594;2023-02-08T02:59:35;103177.38;;;-2.70;85.59
20889;BME280;10604;51.976;7.594;2023-02-08T03:02:02;103177.69;;;-2.65;85.22
20889;BME280;10604;51.976;7.594;2023-02-08T03:10:07;103167.38;;;-2.65;85.90
20889;BME280;10604;51.976;7.594;2023-02-08T03:13:05;103168.25;;;-2.65;85.80
20889;BME280;10604;51.976;7.594;2023-02-08T03:18:50;103169.34;;;-2.74;85.97
20889;BME280;10604;51.976;7.594;2023-02-08T03:32:35;103179.38;;;-2.66;85.13
20889;BME280;10604;51.976;7.594;2023-02-08T03:35:22;103182.28;;;-2.74;85.07
20889;BME280;10604;51.976;7.594;2023-02-08T03:40:48;103176.94;;;-2.78;85.29
20889;BME280;10604;51.976;7.594;2023-02-08T03:43:19;103174.75;;;-2.85;85.40
20889;BME280;10604;51.976;7.594;2023-02-08T03:45:50;103175.56;;;-2.86;85.42
20889;BME280;10604;51.976;7.594;2023-02-08T03:48:19;103167.81;;;-2.86;85.50
20889;BME280;10604;51.976;7.594;2023-02-08T03:50:49;103170.47;;;-2.84;85.51
20889;BME280;10604;51.976;7.594;2023-02-08T03:53:19;103164.81;;;-2.79;85.38
20889;BME280;10604;51.976;7.594;2023-02-08T03:55:48;103174.34;;;-2.78;85.32
20889;BME280;10604;51.976;7.594;2023-02-08T03:58:22;103175.44;;;-2.87;85.07
20889;BME280;10604;51.976;7.594;2023-02-08T04:01:21;103182.09;;;-2.78;85.70
20889;BME280;10604;51.976;7.594;2023-02-08T04:03:49;103184.38;;;-2.82;84.81
20889;BME280;10604;51.976;7.594;2023-02-08T04:06:18;103183.69;;;-2.80;84.79
20889;BME280;10604;51.976;7.594;2023-02-08T04:08:44;103183.09;;;-2.89;84.61
20889;BME280;10604;51.976;7.594;2023-02-08T04:11:09;103189.66;;;-2.94;85.33
20889;BME280;10604;51.976;7.594;2023-02-08T04:13:34;103191.06;;;-2.99;85.42
20889;BME280;10604;51.976;7.594;2023-02-08T04:16:00;103187.47;;;-3.01;85.55
20889;BME280;10604;51.976;7.594;2023-02-08T04:18:25;103179.31;;;-2.94;85.73
20889;BME280;10604;51.976;7.594;2023-02-08T04:20:51;103171.75;;;-2.91;85.91
20889;BME280;10604;51.976;7.594;2023-02-08T04:23:16;103179.13;;;-2.97;85.28
20889;BME280;10604;51.976;7.594;2023-02-08T04:25:42;103177.81;;;-3.03;85.17
20889;BME280;10604;51.976;7.594;2023-02-08T04:28:07;103178.72;;;-2.90;85.67
20889;BME280;10604;51.976;7.594;2023-02-08T04:30:33;103175.13;;;-2.79;85.41
20889;BME280;10604;51.976;7.594;2023-02-08T04:32:58;103177.53;;;-2.95;84.85
20889;BME280;10604;51.976;7.594;2023-02-08T04:35:24;103175.34;;;-3.02;85.06
20889;BME280;10604;51.976;7.594;2023-02-08T04:37:50;103175.56;;;-2.99;84.64
20889;BME280;10604;51.976;7.594;2023-02-08T04:40:15;103186.56;;;-3.01;85.02
20889;BME280;10604;51.976;7.594;2023-02-08T04:42:41;103185.28;;;-3.08;84.96
20889;BME280;10604;51.976;7.594;2023-02-08T04:45:06;103188.03;;;-3.05;84.60
20889;BME280;10604;51.976;7.594;2023-02-08T04:47:32;103189.34;;;-3.11;84.99
20889;BME280;10604;51.976;7.594;2023-02-08T04:49:57;103193.41;;;-3.15;84.65
20889;BME280;10604;51.976;7.594;2023-02-08T04:52:23;103193.91;;;-3.07;85.50
20889;BME280;10604;51.976;7.594;2023-02-08T04:54:48;103183.50;;;-3.09;85.08
20889;BME280;10604;51.976;7.594;2023-02-08T04:57:13;103189.94;;;-3.02;85.07
20889;BME280;10604;51.976;7.594;2023-02-08T04:59:39;103185.69;;;-3.02;84.82
20889;BME280;10604;51.976;7.594;2023-02-08T05:02:04;103188.66;;;-3.09;84.79
20889;BME280;10604;51.976;7.594;2023-02-08T05:04:30;103183.09;;;-3.15;84.57
20889;BME280;10604;51.976;7.594;2023-02-08T05:06:55;103181.53;;;-3.13;85.00
20889;BME280;10604;51.976;7.594;2023-02-08T05:09:21;103190.22;;;-3.11;84.93
20889;BME280;10604;51.976;7.594;2023-02-08T05:11:46;103186.75;;;-3.11;84.99
20889;BME280;10604;51.976;7.594;2023-02-08T05:14:11;103184.88;;;-3.14;84.67
20889;BME280;10604;51.976;7.594;2023-02-08T05:16:37;103183.00;;;-3.17;84.71
20889;BME280;10604;51.976;7.594;2023-02-08T05:19:02;103177.72;;;-3.18;84.73
20889;BME280;10604;51.976;7.594;2023-02-08T05:21:27;103184.69;;;-3.17;84.90
20889;BME280;10604;51.976;7.594;2023-02-08T05:23:53;103186.69;;;-3.13;84.55
20889;BME280;10604;51.976;7.594;2023-02-08T05:26:18;103188.44;;;-3.12;84.49
20889;BME280;10604;51.976;7.594;2023-02-08T05:28:44;103187.88;;;-3.21;84.03
20889;BME280;10604;51.976;7.594;2023-02-08T05:31:14;103186.06;;;-3.22;84.51
20889;BME280;10604;51.976;7.594;2023-02-08T05:33:41;103190.63;;;-3.31;84.04
20889;BME280;10604;51.976;7.594;2023-02-08T05:36:07;103187.66;;;-3.11;84.63
20889;BME280;10604;51.976;7.594;2023-02-08T05:38:32;103186.25;;;-3.19;83.98
20889;BME280;10604;51.976;7.594;2023-02-08T05:40:57;103188.03;;;-3.18;84.11
20889;BME280;10604;51.976;7.594;2023-02-08T05:43:23;103191.34;;;-3.07;84.24
20889;BME280;10604;51.976;7.594;2023-02-08T05:45:49;103193.22;;;-3.18;83.76
20889;BME280;10604;51.976;7.594;2023-02-08T05:48:14;103191.03;;;-3.25;83.94
20889;BME280;10604;51.976;7.594;2023-02-08T05:50:40;103188.75;;;-3.21;83.91
20889;BME280;10604;51.976;7.594;2023-02-08T05:53:05;103200.75;;;-3.21;83.97
20889;BME280;10604;51.976;7.594;2023-02-08T05:55:30;103186.56;;;-3.28;84.21
20889;BME280;10604;51.976;7.594;2023-02-08T05:57:56;103182.09;;;-3.30;83.82
20889;BME280;10604;51.976;7.594;2023-02-08T06:00:21;103186.88;;;-3.23;84.07
20889;BME280;10604;51.976;7.594;2023-02-08T06:02:46;103189.72;;;-3.32;84.18
20889;BME280;10604;51.976;7.594;2023-02-08T06:05:13;103195.28;;;-3.26;84.71
20889;BME280;10604;51.976;7.594;2023-02-08T06:07:38;103190.84;;;-3.28;84.27
20889;BME280;10604;51.976;7.594;2023-02-08T06:10:04;103188.81;;;-3.32;84.36
20889;BME280;10604;51.976;7.594;2023-02-08T06:12:29;103189.22;;;-3.39;84.55
20889;BME280;10604;51.976;7.594;2023-02-08T06:14:54;103183.09;;;-3.41;84.68
20889;BME280;10604;51.976;7.594;2023-02-08T06:17:20;103183.56;;;-3.47;84.32
20889;BME280;10604;51.976;7.594;2023-02-08T06:19:45;103192.19;;;-3.33;84.49
20889;BME280;10604;51.976;7.594;2023-02-08T06:22:10;103195.78;;;-3.31;84.02
20889;BME280;10604;51.976;7.594;2023-02-08T06:24:36;103188.25;;;-3.41;83.79
20889;BME280;10604;51.976;7.594;2023-02-08T06:27:01;103191.22;;;-3.48;83.65
20889;BME280;10604;51.976;7.594;2023-02-08T06:29:26;103181.28;;;-3.42;83.98
20889;BME280;10604;51.976;7.594;2023-02-08T06:31:52;103180.13;;;-3.34;84.26
20889;BME280;10604;51.976;7.594;2023-02-08T06:34:17;103179.28;;;-3.46;83.94
20889;BME280;10604;51.976;7.594;2023-02-08T06:36:43;103173.34;;;-3.32;84.06
20889;BME280;10604;51.976;7.594;2023-02-08T06:39:09;103168.19;;;-3.19;83.78
20889;BME280;10604;51.976;7.594;2023-02-08T06:41:35;103167.50;;;-3.30;83.87
20889;BME280;10604;51.976;7.594;2023-02-08T06:44:00;103161.84;;;-3.24;83.98
20889;BME280;10604;51.976;7.594;2023-02-08T06:46:26;103167.41;;;-3.31;83.88
20889;BME280;10604;51.976;7.594;2023-02-08T06:48:51;103166.63;;;-3.30;84.04
20889;BME280;10604;51.976;7.594;2023-02-08T06:51:17;103164.81;;;-3.31;83.86
20889;BME280;10604;51.976;7.594;2023-02-08T06:53:42;103167.22;;;-3.34;83.68
20889;BME280;10604;51.976;7.594;2023-02-08T06:56:08;103166.00;;;-3.26;83.80
20889;BME280;10604;51.976;7.594;2023-02-08T06:58:33;103166.63;;;-3.30;84.46
20889;BME280;10604;51.976;7.594;2023-02-08T07:00:58;103163.16;;;-3.18;83.81
20889;BME280;10604;51.976;7.594;2023-02-08T07:03:24;103165.22;;;-3.25;83.71
20889;BME280;10604;51.976;7.594;2023-02-08T07:05:49;103174.97;;;-3.21;83.49
20889;BME280;10604;51.976;7.594;2023-02-08T07:08:15;103168.31;;;-3.31;82.92
20889;BME280;10604;51.976;7.594;2023-02-08T07:10:40;103172.00;;;-3.27;82.81
20889;BME280;10604;51.976;7.594;2023-02-08T07:13:06;103158.28;;;-3.39;83.03
20889;BME280;10604;51.976;7.594;2023-02-08T07:15:31;103163.03;;;-3.32;82.86
20889;BME280;10604;51.976;7.594;2023-02-08T07:17:57;103156.09;;;-3.33;82.94
20889;BME280;10604;51.976;7.594;2023-02-08T07:20:22;103163.03;;;-3.32;83.20
20889;BME280;10604;51.976;7.594;2023-02-08T07:22:48;103159.50;;;-3.34;83.31
20889;BME280;10604;51.976;7.594;2023-02-08T07:25:13;103161.25;;;-3.33;83.20
20889;BME280;10604;51.976;7.594;2023-02-08T07:27:39;103164.44;;;-3.37;84.70
20889;BME280;10604;51.976;7.594;2023-02-08T07:30:06;103166.22;;;-3.36;83.88
20889;BME280;10604;51.976;7.594;2023-02-08T07:32:32;103164.81;;;-3.31;83.93
20889;BME280;10604;51.976;7.594;2023-02-08T07:34:58;103162.84;;;-3.35;83.83
20889;BME280;10604;51.976;7.594;2023-02-08T07:37:24;103159.66;;;-3.31;84.92
20889;BME280;10604;51.976;7.594;2023-02-08T07:39:50;103160.88;;;-3.13;85.24
20889;BME280;10604;51.976;7.594;2023-02-08T07:42:15;103162.84;;;-3.09;85.29
20889;BME280;10604;51.976;7.594;2023-02-08T07:44:40;103164.13;;;-3.02;85.00
20889;BME280;10604;51.976;7.594;2023-02-08T07:47:06;103160.25;;;-2.96;84.11
20889;BME280;10604;51.976;7.594;2023-02-08T07:49:32;103164.00;;;-2.91;84.26
20889;BME280;10604;51.976;7.594;2023-02-08T07:51:58;103161.84;;;-2.98;84.59
20889;BME280;10604;51.976;7.594;2023-02-08T07:54:24;103169.38;;;-2.88;84.91
20889;BME280;10604;51.976;7.594;2023-02-08T07:56:49;103161.66;;;-3.01;85.25
20889;BME280;10604;51.976;7.594;2023-02-08T07:59:15;103160.25;;;-2.96;85.40
20889;BME280;10604;51.976;7.594;2023-02-08T08:01:40;103161.91;;;-2.83;85.78
20889;BME280;10604;51.976;7.594;2023-02-08T08:04:06;103161.09;;;-2.69;85.82
20889;BME280;10604;51.976;7.594;2023-02-08T08:06:31;103153.41;;;-2.54;85.43
20889;BME280;10604;51.976;7.594;2023-02-08T08:08:57;103152.63;;;-2.53;85.32
20889;BME280;10604;51.976;7.594;2023-02-08T08:11:22;103149.47;;;-2.49;86.02
20889;BME280;10604;51.976;7.594;2023-02-08T08:13:48;103151.03;;;-2.51;85.53
20889;BME280;10604;51.976;7.594;2023-02-08T08:16:14;103147.03;;;-2.46;86.52
20889;BME280;10604;51.976;7.594;2023-02-08T08:18:40;103147.00;;;-2.33;86.71
20889;BME280;10604;51.976;7.594;2023-02-08T08:21:05;103147.84;;;-2.19;87.46
20889;BME280;10604;51.976;7.594;2023-02-08T08:23:31;103149.22;;;-1.97;86.65
20889;BME280;10604;51.976;7.594;2023-02-08T08:26:08;103143.09;;;-1.69;86.83
20889;BME280;10604;51.976;7.594;2023-02-08T08:28:34;103134.63;;;-1.52;86.46
20889;BME280;10604;51.976;7.594;2023-02-08T08:30:59;103129.91;;;-1.44;86.08
20889;BME280;10604;51.976;7.594;2023-02-08T08:33:24;103135.16;;;-1.43;86.13
20889;BME280;10604;51.976;7.594;2023-02-08T08:35:50;103133.03;;;-1.35;86.05
20889;BME280;10604;51.976;7.594;2023-02-08T08:38:15;103140.28;;;-1.13;85.73
20889;BME280;10604;51.976;7.594;2023-02-08T08:40:41;103140.56;;;-1.09;84.69
20889;BME280;10604;51.976;7.594;2023-02-08T08:43:06;103138.66;;;-1.11;84.47
20889;BME280;10604;51.976;7.594;2023-02-08T08:45:32;103143.84;;;-1.11;84.59
20889;BME280;10604;51.976;7.594;2023-02-08T08:47:57;103146.16;;;-1.01;84.82
20889;BME280;10604;51.976;7.594;2023-02-08T08:50:24;103148.28;;;-0.94;84.69
20889;BME280;10604;51.976;7.594;2023-02-08T08:52:50;103145.72;;;-0.78;84.88
20889;BME280;10604;51.976;7.594;2023-02-08T08:55:15;103142.00;;;-0.83;84.28
20889;BME280;10604;51.976;7.594;2023-02-08T08:57:40;103145.72;;;-0.78;84.28
20889;BME280;10604;51.976;7.594;2023-02-08T09:00:06;103149.91;;;-0.65;84.32
20889;BME280;10604;51.976;7.594;2023-02-08T09:02:33;103152.91;;;-0.58;84.47
20889;BME280;10604;51.976;7.594;2023-02-08T09:04:58;103143.81;;;-0.50;83.16
20889;BME280;10604;51.976;7.594;2023-02-08T09:07:24;103143.50;;;-0.56;82.36
20889;BME280;10604;51.976;7.594;2023-02-08T09:09:50;103147.38;;;-0.64;82.62
20889;BME280;10604;51.976;7.594;2023-02-08T09:12:15;103143.00;;;-0.65;82.68
20889;BME280;10604;51.976;7.594;2023-02-08T09:14:41;103149.34;;;-0.44;82.57
20889;BME280;10604;51.976;7.594;2023-02-08T09:17:09;103146.41;;;-0.50;82.61
20889;BME280;10604;51.976;7.594;2023-02-08T09:19:35;103144.97;;;-0.28;81.73
20889;BME280;10604;51.976;7.594;2023-02-08T09:22:00;103150.97;;;-0.13;81.46
20889;BME280;10604;51.976;7.594;2023-02-08T09:24:26;103138.16;;;0.06;80.77
20889;BME280;10604;51.976;7.594;2023-02-08T09:26:51;103143.50;;;0.09;80.09
20889;BME280;10604;51.976;7.594;2023-02-08T09:29:16;103146.53;;;0.34;79.64
20889;BME280;10604;51.976;7.594;2023-02-08T09:31:42;103140.03;;;0.43;78.61
20889;BME280;10604;51.976;7.594;2023-02-08T09:34:07;103144.25;;;0.41;78.39
20889;BME280;10604;51.976;7.594;2023-02-08T09:36:38;103140.03;;;0.43;78.30
20889;BME280;10604;51.976;7.594;2023-02-08T09:39:16;103144.22;;;0.57;78.59
20889;BME280;10604;51.976;7.594;2023-02-08T09:52:54;103138.25;;;1.12;76.14
20889;BME280;10604;51.976;7.594;2023-02-08T09:55:34;103137.19;;;1.27;75.94
20889;BME280;10604;51.976;7.594;2023-02-08T09:58:04;103145.63;;;1.40;76.22
20889;BME280;10604;51.976;7.594;2023-02-08T10:00:39;103151.22;;;1.49;75.43
20889;BME280;10604;51.976;7.594;2023-02-08T10:03:18;103150.66;;;1.55;75.60
20889;BME280;10604;51.976;7.594;2023-02-08T10:05:46;103145.44;;;1.55;75.24
20889;BME280;10604;51.976;7.594;2023-02-08T10:08:12;103153.81;;;1.86;73.67
20889;BME280;10604;51.976;7.594;2023-02-08T10:19:07;103132.31;;;2.51;69.69
20889;BME280;10604;51.976;7.594;2023-02-08T10:21:48;103127.91;;;2.69;69.15
20889;BME280;10604;51.976;7.594;2023-02-08T10:27:04;103126.97;;;2.90;68.56
20889;BME280;10604;51.976;7.594;2023-02-08T10:35:14;103127.22;;;3.40;67.68
20889;BME280;10604;51.976;7.594;2023-02-08T10:37:43;103130.81;;;3.44;66.72
20889;BME280;10604;51.976;7.594;2023-02-08T10:40:25;103136.53;;;3.80;65.79
20889;BME280;10604;51.976;7.594;2023-02-08T10:46:19;103148.63;;;5.04;65.52
20889;BME280;10604;51.976;7.594;2023-02-08T10:49:16;103132.06;;;6.22;60.06
20889;BME280;10604;51.976;7.594;2023-02-08T10:51:45;103129.34;;;7.25;54.20
20889;BME280;10604;51.976;7.594;2023-02-08T10:54:14;103134.53;;;8.06;50.51
20889;BME280;10604;51.976;7.594;2023-02-08T10:56:50;103127.72;;;8.64;47.95
20889;BME280;10604;51.976;7.594;2023-02-08T11:01:45;103125.31;;;9.35;45.08
20889;BME280;10604;51.976;7.594;2023-02-08T11:04:12;103124.16;;;9.18;43.75
20889;BME280;10604;51.976;7.594;2023-02-08T11:06:39;103121.09;;;9.49;44.03
20889;BME280;10604;51.976;7.594;2023-02-08T11:09:05;103120.06;;;9.38;44.24
20889;BME280;10604;51.976;7.594;2023-02-08T11:11:38;103119.44;;;9.56;45.15
20889;BME280;10604;51.976;7.594;2023-02-08T11:14:12;103110.53;;;9.48;45.24
20889;BME280;10604;51.976;7.594;2023-02-08T11:16:40;103097.59;;;9.64;44.42
20889;BME280;10604;51.976;7.594;2023-02-08T11:19:18;103108.16;;;9.67;44.50
20889;BME280;10604;51.976;7.594;2023-02-08T11:21:48;103090.78;;;9.85;45.35
20889;BME280;10604;51.976;7.594;2023-02-08T11:24:37;103094.22;;;9.77;46.00
20889;BME280;10604;51.976;7.594;2023-02-08T11:27:33;103082.03;;;9.89;46.22
20889;BME280;10604;51.976;7.594;2023-02-08T11:32:33;103087.56;;;10.13;43.39
20889;BME280;10604;51.976;7.594;2023-02-08T11:37:36;103092.38;;;9.70;44.12
20889;BME280;10604;51.976;7.594;2023-02-08T11:40:02;103079.31;;;9.81;42.05
20889;BME280;10604;51.976;7.594;2023-02-08T11:42:34;103085.53;;;9.85;42.23
20889;BME280;10604;51.976;7.594;2023-02-08T11:45:00;103091.31;;;9.55;41.68
20889;BME280;10604;51.976;7.594;2023-02-08T11:47:32;103076.31;;;9.49;42.84
20889;BME280;10604;51.976;7.594;2023-02-08T11:50:00;103062.28;;;9.50;42.78
20889;BME280;10604;51.976;7.594;2023-02-08T11:52:30;103062.44;;;9.62;42.87
20889;BME280;10604;51.976;7.594;2023-02-08T11:58:16;103056.84;;;9.38;42.02
20889;BME280;10604;51.976;7.594;2023-02-08T12:00:58;103052.13;;;9.11;42.45
20889;BME280;10604;51.976;7.594;2023-02-08T12:03:34;103059.22;;;9.17;41.68
20889;BME280;10604;51.976;7.594;2023-02-08T12:16:55;103040.88;;;9.23;40.87
20889;BME280;10604;51.976;7.594;2023-02-08T12:22:05;103032.28;;;9.39;42.25
20889;BME280;10604;51.976;7.594;2023-02-08T12:30:31;103027.56;;;9.12;44.37
20889;BME280;10604;51.976;7.594;2023-02-08T12:44:32;103005.44;;;8.98;43.14
20889;BME280;10604;51.976;7.594;2023-02-08T12:47:04;103012.66;;;9.13;43.21
20889;BME280;10604;51.976;7.594;2023-02-08T12:53:02;102991.31;;;8.91;43.21
20889;BME280;10604;51.976;7.594;2023-02-08T12:55:33;102986.09;;;8.96;41.80
20889;BME280;10604;51.976;7.594;2023-02-08T12:58:25;102986.00;;;8.88;42.22
20889;BME280;10604;51.976;7.594;2023-02-08T13:00:53;102964.16;;;8.92;40.25
20889;BME280;10604;51.976;7.594;2023-02-08T13:06:05;102959.59;;;8.79;42.93
20889;BME280;10604;51.976;7.594;2023-02-08T13:08:38;102964.78;;;8.73;41.90
20889;BME280;10604;51.976;7.594;2023-02-08T13:13:51;102957.59;;;8.63;40.58
20889;BME280;10604;51.976;7.594;2023-02-08T13:16:21;102953.03;;;8.50;41.27
20889;BME280;10604;51.976;7.594;2023-02-08T13:19:13;102956.06;;;8.77;39.19
20889;BME280;10604;51.976;7.594;2023-02-08T13:21:42;102952.19;;;8.51;41.50
20889;BME280;10604;51.976;7.594;2023-02-08T13:26:49;102944.22;;;8.46;41.48
20889;BME280;10604;51.976;7.594;2023-02-08T13:29:17;102945.00;;;8.38;40.35
20889;BME280;10604;51.976;7.594;2023-02-08T13:31:46;102933.53;;;8.34;40.60
20889;BME280;10604;51.976;7.594;2023-02-08T13:37:03;102927.19;;;8.21;39.29
20889;BME280;10604;51.976;7.594;2023-02-08T13:39:35;102918.78;;;8.44;38.42
20889;BME280;10604;51.976;7.594;2023-02-08T13:42:03;102927.47;;;8.40;39.35
20889;BME280;10604;51.976;7.594;2023-02-08T13:44:33;102918.59;;;8.32;40.64
20889;BME280;10604;51.976;7.594;2023-02-08T13:46:59;102917.19;;;7.99;41.67
20889;BME280;10604;51.976;7.594;2023-02-08T13:58:01;102886.84;;;7.64;40.21
20889;BME280;10604;51.976;7.594;2023-02-08T14:00:34;102892.78;;;7.54;41.37
20889;BME280;10604;51.976;7.594;2023-02-08T14:03:23;102883.94;;;7.48;41.28
20889;BME280;10604;51.976;7.594;2023-02-08T14:08:39;102891.88;;;7.53;39.75
20889;BME280;10604;51.976;7.594;2023-02-08T14:14:20;102892.75;;;7.51;38.97
20889;BME280;10604;51.976;7.594;2023-02-08T14:19:28;102871.19;;;7.20;40.13
20889;BME280;10604;51.976;7.594;2023-02-08T14:24:28;102867.59;;;7.15;41.30
20889;BME280;10604;51.976;7.594;2023-02-08T14:29:31;102864.16;;;7.19;43.02
20889;BME280;10604;51.976;7.594;2023-02-08T14:31:58;102860.91;;;7.32;41.55
20889;BME280;10604;51.976;7.594;2023-02-08T14:34:30;102850.09;;;7.14;42.14
20889;BME280;10604;51.976;7.594;2023-02-08T14:39:29;102848.84;;;6.94;43.17
20889;BME280;10604;51.976;7.594;2023-02-08T14:42:01;102846.97;;;6.88;43.55
20889;BME280;10604;51.976;7.594;2023-02-08T14:50:15;102842.31;;;6.74;43.59
20889;BME280;10604;51.976;7.594;2023-02-08T14:52:53;102831.72;;;6.67;44.97
20889;BME280;10604;51.976;7.594;2023-02-08T14:55:24;102831.56;;;6.61;44.98
20889;BME280;10604;51.976;7.594;2023-02-08T14:57:54;102822.19;;;6.73;44.48
20889;BME280;10604;51.976;7.594;2023-02-08T15:00:22;102828.69;;;6.93;43.86
20889;BME280;10604;51.976;7.594;2023-02-08T15:02:50;102826.66;;;6.78;45.33
20889;BME280;10604;51.976;7.594;2023-02-08T15:05:27;102830.69;;;6.59;45.66
20889;BME280;10604;51.976;7.594;2023-02-08T15:07:57;102816.69;;;6.59;44.67
20889;BME280;10604;51.976;7.594;2023-02-08T15:10:24;102814.09;;;6.60;44.56
20889;BME280;10604;51.976;7.594;2023-02-08T15:12:56;102827.06;;;6.54;44.19
20889;BME280;10604;51.976;7.594;2023-02-08T15:17:52;102819.19;;;6.54;44.72
20889;BME280;10604;51.976;7.594;2023-02-08T15:22:47;102820.59;;;6.37;45.66
20889;BME280;10604;51.976;7.594;2023-02-08T15:25:21;102820.66;;;6.40;45.47
20889;BME280;10604;51.976;7.594;2023-02-08T15:27:52;102806.06;;;6.11;47.23
20889;BME280;10604;51.976;7.594;2023-02-08T15:30:35;102816.38;;;6.05;46.76
20889;BME280;10604;51.976;7.594;2023-02-08T15:33:02;102813.69;;;6.00;48.32
20889;BME280;10604;51.976;7.594;2023-02-08T15:35:33;102804.00;;;5.98;48.21
20889;BME280;10604;51.976;7.594;2023-02-08T15:38:00;102795.38;;;6.02;49.23
20889;BME280;10604;51.976;7.594;2023-02-08T15:40:31;102796.81;;;5.87;48.74
20889;BME280;10604;51.976;7.594;2023-02-08T15:45:32;102794.44;;;5.62;50.80
20889;BME280;10604;51.976;7.594;2023-02-08T15:47:57;102787.22;;;5.52;51.58
20889;BME280;10604;51.976;7.594;2023-02-08T15:50:24;102786.25;;;5.48;51.42